sensor_id;sensor_type;location;lat;lon;timestamp;temperature;humidity
4693;DHT22;11710;48.024;16.296;2022-08-30T00:00:25;21.20;99.90
4693;DHT22;11710;48.024;16.296;2022-08-30T00:03:12;21.20;99.90
4693;DHT22;11710;48.024;16.296;2022-08-30T00:05:39;21.20;99.90
4693;DHT22;11710;48.024;16.296;2022-08-30T00:08:07;21.10;99.90
4693;DHT22;11710;48.024;16.296;2022-08-30T00:10:35;21.10;99.90
4693;DHT22;11710;48.024;16.296;2022-08-30T00:13:04;21.00;99.90
4693;DHT22;11710;48.024;16.296;2022-08-30T00:15:32;21.00;99.90
4693;DHT22;11710;48.024;16.296;2022-08-30T00:17:59;20.90;99.90
4693;DHT22;11710;48.024;16.296;2022-08-30T00:20:30;20.90;99.90
4693;DHT22;11710;48.024;16.296;2022-08-30T00:22:57;20.90;99.90
4693;DHT22;11710;48.024;16.296;2022-08-30T00:25:24;20.80;99.90
4693;DHT22;11710;48.024;16.296;2022-08-30T00:27:52;20.80;99.90
4693;DHT22;11710;48.024;16.296;2022-08-30T00:30:20;20.70;99.90
4693;DHT22;11710;48.024;16.296;2022-08-30T00:32:47;20.60;99.90
4693;DHT22;11710;48.024;16.296;2022-08-30T00:35:16;20.60;99.90
4693;DHT22;11710;48.024;16.296;2022-08-30T00:37:45;20.60;99.90
4693;DHT22;11710;48.024;16.296;2022-08-30T00:40:12;20.60;99.90
4693;DHT22;11710;48.024;16.296;2022-08-30T00:42:40;20.50;99.90
4693;DHT22;11710;48.024;16.296;2022-08-30T00:45:10;20.50;99.90
4693;DHT22;11710;48.024;16.296;2022-08-30T00:47:40;20.50;99.90
4693;DHT22;11710;48.024;16.296;2022-08-30T00:50:09;20.40;99.90
4693;DHT22;11710;48.024;16.296;2022-08-30T00:52:38;20.40;99.90
4693;DHT22;11710;48.024;16.296;2022-08-30T00:55:07;20.40;99.90
4693;DHT22;11710;48.024;16.296;2022-08-30T00:57:35;20.40;99.90
4693;DHT22;11710;48.024;16.296;2022-08-30T01:00:04;20.40;99.90
4693;DHT22;11710;48.024;16.296;2022-08-30T01:02:31;20.40;99.90
4693;DHT22;11710;48.024;16.296;2022-08-30T01:05:01;20.30;99.90
4693;DHT22;11710;48.024;16.296;2022-08-30T01:07:28;20.30;99.90
4693;DHT22;11710;48.024;16.296;2022-08-30T01:09:55;20.30;99.90
4693;DHT22;11710;48.024;16.296;2022-08-30T01:12:22;20.30;99.90
4693;DHT22;11710;48.024;16.296;2022-08-30T01:14:49;20.20;99.90
4693;DHT22;11710;48.024;16.296;2022-08-30T01:17:17;20.20;99.90
4693;DHT22;11710;48.024;16.296;2022-08-30T01:19:48;20.10;99.90
4693;DHT22;11710;48.024;16.296;2022-08-30T01:22:22;20.10;99.90
4693;DHT22;11710;48.024;16.296;2022-08-30T01:24:55;20.10;99.90
4693;DHT22;11710;48.024;16.296;2022-08-30T01:27:24;20.10;99.90
4693;DHT22;11710;48.024;16.296;2022-08-30T01:29:52;20.10;99.90
4693;DHT22;11710;48.024;16.296;2022-08-30T01:32:24;20.00;99.90
4693;DHT22;11710;48.024;16.296;2022-08-30T01:34:51;20.10;99.90
4693;DHT22;11710;48.024;16.296;2022-08-30T01:37:27;20.10;99.90
4693;DHT22;11710;48.024;16.296;2022-08-30T01:39:57;20.00;99.90
4693;DHT22;11710;48.024;16.296;2022-08-30T01:42:25;20.10;99.90
4693;DHT22;11710;48.024;16.296;2022-08-30T01:44:52;20.10;99.90
4693;DHT22;11710;48.024;16.296;2022-08-30T01:47:19;20.10;99.90
4693;DHT22;11710;48.024;16.296;2022-08-30T01:49:46;20.10;99.90
4693;DHT22;11710;48.024;16.296;2022-08-30T01:52:14;20.00;99.90
4693;DHT22;11710;48.024;16.296;2022-08-30T01:54:43;20.00;99.90
4693;DHT22;11710;48.024;16.296;2022-08-30T01:57:14;20.00;99.90
4693;DHT22;11710;48.024;16.296;2022-08-30T01:59:43;20.00;99.90
4693;DHT22;11710;48.024;16.296;2022-08-30T02:02:12;20.00;99.90
4693;DHT22;11710;48.024;16.296;2022-08-30T02:04:40;20.00;99.90
4693;DHT22;11710;48.024;16.296;2022-08-30T02:07:07;20.00;99.90
4693;DHT22;11710;48.024;16.296;2022-08-30T02:09:35;20.00;99.90
4693;DHT22;11710;48.024;16.296;2022-08-30T02:12:04;20.00;99.90
4693;DHT22;11710;48.024;16.296;2022-08-30T02:14:33;20.00;99.90
4693;DHT22;11710;48.024;16.296;2022-08-30T02:17:02;19.90;99.90
4693;DHT22;11710;48.024;16.296;2022-08-30T02:19:29;19.90;99.90
4693;DHT22;11710;48.024;16.296;2022-08-30T02:21:56;19.90;99.90
4693;DHT22;11710;48.024;16.296;2022-08-30T02:24:23;19.90;99.90
4693;DHT22;11710;48.024;16.296;2022-08-30T02:26:50;19.90;99.90
4693;DHT22;11710;48.024;16.296;2022-08-30T02:29:18;19.80;99.90
4693;DHT22;11710;48.024;16.296;2022-08-30T02:31:46;19.80;99.90
4693;DHT22;11710;48.024;16.296;2022-08-30T02:34:13;19.80;99.90
4693;DHT22;11710;48.024;16.296;2022-08-30T02:36:40;19.80;99.90
4693;DHT22;11710;48.024;16.296;2022-08-30T02:39:07;19.80;99.90
4693;DHT22;11710;48.024;16.296;2022-08-30T02:41:34;19.80;99.90
4693;DHT22;11710;48.024;16.296;2022-08-30T02:44:02;19.80;99.90
4693;DHT22;11710;48.024;16.296;2022-08-30T02:46:29;19.70;99.90
4693;DHT22;11710;48.024;16.296;2022-08-30T02:48:58;19.70;99.90
4693;DHT22;11710;48.024;16.296;2022-08-30T02:51:25;19.70;99.90
4693;DHT22;11710;48.024;16.296;2022-08-30T02:53:52;19.70;99.90
4693;DHT22;11710;48.024;16.296;2022-08-30T02:56:19;19.70;99.90
4693;DHT22;11710;48.024;16.296;2022-08-30T02:58:46;19.70;99.90
4693;DHT22;11710;48.024;16.296;2022-08-30T03:01:15;19.70;99.90
4693;DHT22;11710;48.024;16.296;2022-08-30T03:03:43;19.60;99.90
4693;DHT22;11710;48.024;16.296;2022-08-30T03:06:12;19.60;99.90
4693;DHT22;11710;48.024;16.296;2022-08-30T03:08:40;19.60;99.90
4693;DHT22;11710;48.024;16.296;2022-08-30T03:11:07;19.60;99.90
4693;DHT22;11710;48.024;16.296;2022-08-30T03:13:34;19.60;99.90
4693;DHT22;11710;48.024;16.296;2022-08-30T03:16:01;19.60;99.90
4693;DHT22;11710;48.024;16.296;2022-08-30T03:18:28;19.50;99.90
4693;DHT22;11710;48.024;16.296;2022-08-30T03:20:55;19.50;99.90
4693;DHT22;11710;48.024;16.296;2022-08-30T03:23:24;19.40;99.90
4693;DHT22;11710;48.024;16.296;2022-08-30T03:25:51;19.40;99.90
4693;DHT22;11710;48.024;16.296;2022-08-30T03:28:18;19.40;99.90
4693;DHT22;11710;48.024;16.296;2022-08-30T03:30:45;19.30;99.90
4693;DHT22;11710;48.024;16.296;2022-08-30T03:33:13;19.30;99.90
4693;DHT22;11710;48.024;16.296;2022-08-30T03:35:39;19.20;99.90
4693;DHT22;11710;48.024;16.296;2022-08-30T03:38:06;19.10;99.90
4693;DHT22;11710;48.024;16.296;2022-08-30T03:40:35;19.00;99.90
4693;DHT22;11710;48.024;16.296;2022-08-30T03:43:02;18.90;99.90
4693;DHT22;11710;48.024;16.296;2022-08-30T03:45:29;18.90;99.90
4693;DHT22;11710;48.024;16.296;2022-08-30T03:47:56;18.90;99.90
4693;DHT22;11710;48.024;16.296;2022-08-30T03:50:23;18.80;99.90
4693;DHT22;11710;48.024;16.296;2022-08-30T03:52:50;18.80;99.90
4693;DHT22;11710;48.024;16.296;2022-08-30T03:55:17;18.80;99.90
4693;DHT22;11710;48.024;16.296;2022-08-30T03:57:45;18.80;99.90
4693;DHT22;11710;48.024;16.296;2022-08-30T04:00:13;18.80;99.90
4693;DHT22;11710;48.024;16.296;2022-08-30T04:02:40;18.80;99.90
4693;DHT22;11710;48.024;16.296;2022-08-30T04:05:08;18.70;99.90
4693;DHT22;11710;48.024;16.296;2022-08-30T04:07:35;18.60;99.90
4693;DHT22;11710;48.024;16.296;2022-08-30T04:10:03;18.60;99.90
4693;DHT22;11710;48.024;16.296;2022-08-30T04:12:30;18.50;99.90
4693;DHT22;11710;48.024;16.296;2022-08-30T04:14:59;18.50;99.90
4693;DHT22;11710;48.024;16.296;2022-08-30T04:17:25;18.50;99.90
4693;DHT22;11710;48.024;16.296;2022-08-30T04:19:52;18.50;99.90
4693;DHT22;11710;48.024;16.296;2022-08-30T04:22:19;18.50;99.90
4693;DHT22;11710;48.024;16.296;2022-08-30T04:24:46;18.50;99.90
4693;DHT22;11710;48.024;16.296;2022-08-30T04:27:13;18.50;99.90
4693;DHT22;11710;48.024;16.296;2022-08-30T04:29:40;18.60;99.90
4693;DHT22;11710;48.024;16.296;2022-08-30T04:32:09;18.60;99.90
4693;DHT22;11710;48.024;16.296;2022-08-30T04:34:36;18.70;99.90
4693;DHT22;11710;48.024;16.296;2022-08-30T04:37:03;18.70;99.90
4693;DHT22;11710;48.024;16.296;2022-08-30T04:39:30;18.70;99.90
4693;DHT22;11710;48.024;16.296;2022-08-30T04:41:57;18.80;99.90
4693;DHT22;11710;48.024;16.296;2022-08-30T04:44:24;18.90;99.90
4693;DHT22;11710;48.024;16.296;2022-08-30T04:46:52;19.00;99.90
4693;DHT22;11710;48.024;16.296;2022-08-30T04:49:20;19.10;99.90
4693;DHT22;11710;48.024;16.296;2022-08-30T04:51:47;19.30;99.90
4693;DHT22;11710;48.024;16.296;2022-08-30T04:54:14;19.40;99.90
4693;DHT22;11710;48.024;16.296;2022-08-30T04:56:41;19.60;99.90
4693;DHT22;11710;48.024;16.296;2022-08-30T04:59:08;20.30;99.90
4693;DHT22;11710;48.024;16.296;2022-08-30T05:01:35;21.90;99.90
4693;DHT22;11710;48.024;16.296;2022-08-30T05:04:02;23.60;99.90
4693;DHT22;11710;48.024;16.296;2022-08-30T05:06:32;25.20;99.90
4693;DHT22;11710;48.024;16.296;2022-08-30T05:08:59;26.90;99.90
4693;DHT22;11710;48.024;16.296;2022-08-30T05:11:27;28.40;99.90
4693;DHT22;11710;48.024;16.296;2022-08-30T05:13:54;29.80;99.90
4693;DHT22;11710;48.024;16.296;2022-08-30T05:16:21;31.10;99.30
4693;DHT22;11710;48.024;16.296;2022-08-30T05:18:49;32.40;97.00
4693;DHT22;11710;48.024;16.296;2022-08-30T05:21:18;33.60;94.60
4693;DHT22;11710;48.024;16.296;2022-08-30T05:23:47;34.90;92.30
4693;DHT22;11710;48.024;16.296;2022-08-30T05:26:16;36.00;90.00
4693;DHT22;11710;48.024;16.296;2022-08-30T05:28:44;37.00;85.60
4693;DHT22;11710;48.024;16.296;2022-08-30T05:31:14;38.10;82.10
4693;DHT22;11710;48.024;16.296;2022-08-30T05:33:42;39.00;78.50
4693;DHT22;11710;48.024;16.296;2022-08-30T05:36:10;39.60;74.90
4693;DHT22;11710;48.024;16.296;2022-08-30T05:38:38;40.30;73.20
4693;DHT22;11710;48.024;16.296;2022-08-30T05:41:06;40.90;69.80
4693;DHT22;11710;48.024;16.296;2022-08-30T05:43:34;41.40;67.80
4693;DHT22;11710;48.024;16.296;2022-08-30T05:46:03;41.60;65.90
4693;DHT22;11710;48.024;16.296;2022-08-30T05:48:31;41.90;64.80
4693;DHT22;11710;48.024;16.296;2022-08-30T05:51:05;42.40;63.40
4693;DHT22;11710;48.024;16.296;2022-08-30T05:53:33;42.60;62.00
4693;DHT22;11710;48.024;16.296;2022-08-30T05:56:00;42.40;61.00
4693;DHT22;11710;48.024;16.296;2022-08-30T05:58:29;42.20;60.50
4693;DHT22;11710;48.024;16.296;2022-08-30T06:00:56;42.10;60.50
4693;DHT22;11710;48.024;16.296;2022-08-30T06:03:24;42.40;60.60
4693;DHT22;11710;48.024;16.296;2022-08-30T06:05:51;42.80;59.90
4693;DHT22;11710;48.024;16.296;2022-08-30T06:08:18;43.40;58.20
4693;DHT22;11710;48.024;16.296;2022-08-30T06:10:45;43.80;58.70
4693;DHT22;11710;48.024;16.296;2022-08-30T06:13:13;44.10;56.40
4693;DHT22;11710;48.024;16.296;2022-08-30T06:15:41;44.20;56.90
4693;DHT22;11710;48.024;16.296;2022-08-30T06:18:10;44.80;55.80
4693;DHT22;11710;48.024;16.296;2022-08-30T06:20:39;45.40;54.90
4693;DHT22;11710;48.024;16.296;2022-08-30T06:23:06;45.30;53.70
4693;DHT22;11710;48.024;16.296;2022-08-30T06:25:34;44.20;53.80
4693;DHT22;11710;48.024;16.296;2022-08-30T06:28:02;42.40;54.30
4693;DHT22;11710;48.024;16.296;2022-08-30T06:30:29;40.60;56.30
4693;DHT22;11710;48.024;16.296;2022-08-30T06:32:57;39.00;58.30
4693;DHT22;11710;48.024;16.296;2022-08-30T06:35:25;37.90;60.30
4693;DHT22;11710;48.024;16.296;2022-08-30T06:37:52;37.10;61.60
4693;DHT22;11710;48.024;16.296;2022-08-30T06:40:19;36.30;63.40
4693;DHT22;11710;48.024;16.296;2022-08-30T06:42:46;35.30;64.70
4693;DHT22;11710;48.024;16.296;2022-08-30T06:45:14;34.70;66.40
4693;DHT22;11710;48.024;16.296;2022-08-30T06:47:41;34.00;66.50
4693;DHT22;11710;48.024;16.296;2022-08-30T06:50:10;33.40;67.90
4693;DHT22;11710;48.024;16.296;2022-08-30T06:52:38;32.80;68.80
4693;DHT22;11710;48.024;16.296;2022-08-30T06:55:05;32.30;69.80
4693;DHT22;11710;48.024;16.296;2022-08-30T06:57:32;32.10;71.20
4693;DHT22;11710;48.024;16.296;2022-08-30T06:59:59;32.00;71.80
4693;DHT22;11710;48.024;16.296;2022-08-30T07:02:27;31.90;72.30
4693;DHT22;11710;48.024;16.296;2022-08-30T07:04:54;31.80;72.70
4693;DHT22;11710;48.024;16.296;2022-08-30T07:07:22;31.80;73.50
4693;DHT22;11710;48.024;16.296;2022-08-30T07:09:49;31.80;73.80
4693;DHT22;11710;48.024;16.296;2022-08-30T07:12:16;31.80;73.80
4693;DHT22;11710;48.024;16.296;2022-08-30T07:14:43;31.80;74.50
4693;DHT22;11710;48.024;16.296;2022-08-30T07:17:10;31.70;74.80
4693;DHT22;11710;48.024;16.296;2022-08-30T07:19:54;31.70;73.90
4693;DHT22;11710;48.024;16.296;2022-08-30T07:22:23;31.50;73.30
4693;DHT22;11710;48.024;16.296;2022-08-30T07:24:49;31.40;73.50
4693;DHT22;11710;48.024;16.296;2022-08-30T07:27:16;31.40;74.00
4693;DHT22;11710;48.024;16.296;2022-08-30T07:29:45;31.20;74.10
4693;DHT22;11710;48.024;16.296;2022-08-30T07:32:14;31.10;74.10
4693;DHT22;11710;48.024;16.296;2022-08-30T07:34:41;31.10;74.20
4693;DHT22;11710;48.024;16.296;2022-08-30T07:37:07;30.90;74.70
4693;DHT22;11710;48.024;16.296;2022-08-30T07:39:36;30.70;74.60
4693;DHT22;11710;48.024;16.296;2022-08-30T07:42:03;30.70;75.10
4693;DHT22;11710;48.024;16.296;2022-08-30T07:44:30;30.70;75.50
4693;DHT22;11710;48.024;16.296;2022-08-30T07:46:57;30.70;75.20
4693;DHT22;11710;48.024;16.296;2022-08-30T07:49:23;30.60;76.20
4693;DHT22;11710;48.024;16.296;2022-08-30T07:51:50;30.70;75.70
4693;DHT22;11710;48.024;16.296;2022-08-30T07:54:17;30.80;75.60
4693;DHT22;11710;48.024;16.296;2022-08-30T07:56:45;30.70;75.60
4693;DHT22;11710;48.024;16.296;2022-08-30T07:59:13;30.70;75.60
4693;DHT22;11710;48.024;16.296;2022-08-30T08:01:40;30.70;75.60
4693;DHT22;11710;48.024;16.296;2022-08-30T08:04:07;30.80;75.50
4693;DHT22;11710;48.024;16.296;2022-08-30T08:06:37;30.80;75.30
4693;DHT22;11710;48.024;16.296;2022-08-30T08:09:04;30.70;75.40
4693;DHT22;11710;48.024;16.296;2022-08-30T08:11:32;30.80;74.50
4693;DHT22;11710;48.024;16.296;2022-08-30T08:14:01;30.60;74.60
4693;DHT22;11710;48.024;16.296;2022-08-30T08:16:30;30.40;75.10
4693;DHT22;11710;48.024;16.296;2022-08-30T08:18:58;30.30;75.40
4693;DHT22;11710;48.024;16.296;2022-08-30T08:21:25;30.30;75.20
4693;DHT22;11710;48.024;16.296;2022-08-30T08:23:53;30.10;74.80
4693;DHT22;11710;48.024;16.296;2022-08-30T08:26:20;30.30;75.00
4693;DHT22;11710;48.024;16.296;2022-08-30T08:28:48;30.20;74.60
4693;DHT22;11710;48.024;16.296;2022-08-30T08:31:18;30.20;74.60
4693;DHT22;11710;48.024;16.296;2022-08-30T08:33:45;30.20;73.50
4693;DHT22;11710;48.024;16.296;2022-08-30T08:36:12;30.20;74.30
4693;DHT22;11710;48.024;16.296;2022-08-30T08:38:39;30.30;74.60
4693;DHT22;11710;48.024;16.296;2022-08-30T08:41:12;30.30;74.50
4693;DHT22;11710;48.024;16.296;2022-08-30T08:43:43;30.20;73.70
4693;DHT22;11710;48.024;16.296;2022-08-30T08:46:18;30.10;74.60
4693;DHT22;11710;48.024;16.296;2022-08-30T08:48:50;30.30;73.10
4693;DHT22;11710;48.024;16.296;2022-08-30T08:51:20;30.40;73.20
4693;DHT22;11710;48.024;16.296;2022-08-30T08:54:09;30.40;72.50
4693;DHT22;11710;48.024;16.296;2022-08-30T08:56:37;30.60;71.90
4693;DHT22;11710;48.024;16.296;2022-08-30T08:59:07;30.60;72.90
4693;DHT22;11710;48.024;16.296;2022-08-30T09:01:36;30.70;73.00
4693;DHT22;11710;48.024;16.296;2022-08-30T09:04:08;31.00;72.90
4693;DHT22;11710;48.024;16.296;2022-08-30T09:06:54;31.10;72.20
4693;DHT22;11710;48.024;16.296;2022-08-30T09:09:26;31.00;72.20
4693;DHT22;11710;48.024;16.296;2022-08-30T09:11:55;30.90;71.80
4693;DHT22;11710;48.024;16.296;2022-08-30T09:14:25;30.80;72.10
4693;DHT22;11710;48.024;16.296;2022-08-30T09:16:58;31.00;72.20
4693;DHT22;11710;48.024;16.296;2022-08-30T09:19:35;31.20;70.60
4693;DHT22;11710;48.024;16.296;2022-08-30T09:22:05;31.20;68.90
4693;DHT22;11710;48.024;16.296;2022-08-30T09:24:40;31.20;67.90
4693;DHT22;11710;48.024;16.296;2022-08-30T09:27:20;31.20;65.00
4693;DHT22;11710;48.024;16.296;2022-08-30T09:29:54;31.10;65.00
4693;DHT22;11710;48.024;16.296;2022-08-30T09:32:29;30.90;65.00
4693;DHT22;11710;48.024;16.296;2022-08-30T09:34:57;30.70;66.50
4693;DHT22;11710;48.024;16.296;2022-08-30T09:37:30;30.90;67.40
4693;DHT22;11710;48.024;16.296;2022-08-30T09:39:57;31.30;65.70
4693;DHT22;11710;48.024;16.296;2022-08-30T09:42:27;31.50;64.50
4693;DHT22;11710;48.024;16.296;2022-08-30T09:44:55;31.80;62.40
4693;DHT22;11710;48.024;16.296;2022-08-30T09:47:38;32.10;63.20
4693;DHT22;11710;48.024;16.296;2022-08-30T09:50:08;31.90;62.90
4693;DHT22;11710;48.024;16.296;2022-08-30T09:52:46;31.90;62.90
4693;DHT22;11710;48.024;16.296;2022-08-30T09:55:25;31.40;63.20
4693;DHT22;11710;48.024;16.296;2022-08-30T09:57:58;30.90;63.10
4693;DHT22;11710;48.024;16.296;2022-08-30T10:00:29;31.00;63.70
4693;DHT22;11710;48.024;16.296;2022-08-30T10:03:13;31.10;64.00
4693;DHT22;11710;48.024;16.296;2022-08-30T10:05:55;31.20;64.90
4693;DHT22;11710;48.024;16.296;2022-08-30T10:08:31;30.90;63.80
4693;DHT22;11710;48.024;16.296;2022-08-30T10:11:04;30.80;64.30
4693;DHT22;11710;48.024;16.296;2022-08-30T10:13:41;31.00;64.60
4693;DHT22;11710;48.024;16.296;2022-08-30T10:16:25;31.10;64.80
4693;DHT22;11710;48.024;16.296;2022-08-30T10:19:04;31.10;65.20
4693;DHT22;11710;48.024;16.296;2022-08-30T10:21:36;30.80;65.10
4693;DHT22;11710;48.024;16.296;2022-08-30T10:24:07;30.90;64.30
4693;DHT22;11710;48.024;16.296;2022-08-30T10:26:39;30.90;64.60
4693;DHT22;11710;48.024;16.296;2022-08-30T10:29:11;31.00;64.50
4693;DHT22;11710;48.024;16.296;2022-08-30T10:31:43;31.00;64.60
4693;DHT22;11710;48.024;16.296;2022-08-30T10:34:15;30.80;65.00
4693;DHT22;11710;48.024;16.296;2022-08-30T10:36:47;30.50;65.60
4693;DHT22;11710;48.024;16.296;2022-08-30T10:39:20;30.40;65.70
4693;DHT22;11710;48.024;16.296;2022-08-30T10:41:49;30.50;65.30
4693;DHT22;11710;48.024;16.296;2022-08-30T10:44:21;30.30;65.40
4693;DHT22;11710;48.024;16.296;2022-08-30T10:47:00;30.00;65.40
4693;DHT22;11710;48.024;16.296;2022-08-30T10:49:33;30.00;66.20
4693;DHT22;11710;48.024;16.296;2022-08-30T10:52:16;29.70;66.30
4693;DHT22;11710;48.024;16.296;2022-08-30T10:54:48;29.40;66.90
4693;DHT22;11710;48.024;16.296;2022-08-30T10:57:16;29.40;67.30
4693;DHT22;11710;48.024;16.296;2022-08-30T10:59:47;29.20;68.40
4693;DHT22;11710;48.024;16.296;2022-08-30T11:02:37;29.00;68.90
4693;DHT22;11710;48.024;16.296;2022-08-30T11:05:33;28.90;69.10
4693;DHT22;11710;48.024;16.296;2022-08-30T11:08:12;29.00;69.20
4693;DHT22;11710;48.024;16.296;2022-08-30T11:10:49;29.10;69.90
4693;DHT22;11710;48.024;16.296;2022-08-30T11:13:27;29.00;69.20
4693;DHT22;11710;48.024;16.296;2022-08-30T11:15:58;29.20;68.70
4693;DHT22;11710;48.024;16.296;2022-08-30T11:18:28;29.30;68.70
4693;DHT22;11710;48.024;16.296;2022-08-30T11:21:23;29.30;68.50
4693;DHT22;11710;48.024;16.296;2022-08-30T11:24:03;29.20;68.90
4693;DHT22;11710;48.024;16.296;2022-08-30T11:29:30;29.30;69.30
4693;DHT22;11710;48.024;16.296;2022-08-30T11:31:58;29.30;69.40
4693;DHT22;11710;48.024;16.296;2022-08-30T11:34:53;29.50;69.10
4693;DHT22;11710;48.024;16.296;2022-08-30T11:37:35;29.60;68.60
4693;DHT22;11710;48.024;16.296;2022-08-30T11:40:06;29.40;69.00
4693;DHT22;11710;48.024;16.296;2022-08-30T11:42:39;29.30;68.90
4693;DHT22;11710;48.024;16.296;2022-08-30T11:45:41;29.30;69.20
4693;DHT22;11710;48.024;16.296;2022-08-30T11:48:38;29.30;69.70
4693;DHT22;11710;48.024;16.296;2022-08-30T11:51:13;29.30;69.80
4693;DHT22;11710;48.024;16.296;2022-08-30T11:53:50;29.20;69.90
4693;DHT22;11710;48.024;16.296;2022-08-30T11:56:25;29.10;70.10
4693;DHT22;11710;48.024;16.296;2022-08-30T11:58:57;28.90;70.40
4693;DHT22;11710;48.024;16.296;2022-08-30T12:01:33;28.80;70.40
4693;DHT22;11710;48.024;16.296;2022-08-30T12:04:04;28.90;70.60
4693;DHT22;11710;48.024;16.296;2022-08-30T12:06:47;28.90;69.70
4693;DHT22;11710;48.024;16.296;2022-08-30T12:13:03;29.20;69.10
4693;DHT22;11710;48.024;16.296;2022-08-30T12:18:29;29.20;69.50
4693;DHT22;11710;48.024;16.296;2022-08-30T12:21:01;29.20;69.90
4693;DHT22;11710;48.024;16.296;2022-08-30T12:23:37;29.10;69.50
4693;DHT22;11710;48.024;16.296;2022-08-30T12:26:10;29.20;70.10
4693;DHT22;11710;48.024;16.296;2022-08-30T12:28:40;29.30;70.00
4693;DHT22;11710;48.024;16.296;2022-08-30T12:31:10;29.40;69.70
4693;DHT22;11710;48.024;16.296;2022-08-30T12:33:42;29.40;69.20
4693;DHT22;11710;48.024;16.296;2022-08-30T12:36:15;29.40;69.20
4693;DHT22;11710;48.024;16.296;2022-08-30T12:38:42;29.40;69.80
4693;DHT22;11710;48.024;16.296;2022-08-30T12:41:17;29.50;69.00
4693;DHT22;11710;48.024;16.296;2022-08-30T12:43:49;29.30;69.10
4693;DHT22;11710;48.024;16.296;2022-08-30T12:46:18;29.30;69.20
4693;DHT22;11710;48.024;16.296;2022-08-30T12:48:47;29.40;69.10
4693;DHT22;11710;48.024;16.296;2022-08-30T12:51:32;29.50;69.40
4693;DHT22;11710;48.024;16.296;2022-08-30T12:54:12;29.50;69.40
4693;DHT22;11710;48.024;16.296;2022-08-30T12:56:55;29.30;69.00
4693;DHT22;11710;48.024;16.296;2022-08-30T12:59:57;29.20;69.40
4693;DHT22;11710;48.024;16.296;2022-08-30T13:02:26;29.30;69.90
4693;DHT22;11710;48.024;16.296;2022-08-30T13:04:55;29.30;69.60
4693;DHT22;11710;48.024;16.296;2022-08-30T13:07:28;29.40;69.20
4693;DHT22;11710;48.024;16.296;2022-08-30T13:10:12;29.30;69.00
4693;DHT22;11710;48.024;16.296;2022-08-30T13:12:39;29.40;69.10
4693;DHT22;11710;48.024;16.296;2022-08-30T13:15:17;29.50;68.50
4693;DHT22;11710;48.024;16.296;2022-08-30T13:17:45;29.70;68.50
4693;DHT22;11710;48.024;16.296;2022-08-30T13:20:25;29.70;69.20
4693;DHT22;11710;48.024;16.296;2022-08-30T13:23:06;29.60;68.60
4693;DHT22;11710;48.024;16.296;2022-08-30T13:25:35;29.50;69.40
4693;DHT22;11710;48.024;16.296;2022-08-30T13:28:04;29.50;69.00
4693;DHT22;11710;48.024;16.296;2022-08-30T13:30:33;29.40;69.60
4693;DHT22;11710;48.024;16.296;2022-08-30T13:33:00;29.40;69.50
4693;DHT22;11710;48.024;16.296;2022-08-30T13:35:28;29.50;69.60
4693;DHT22;11710;48.024;16.296;2022-08-30T13:37:55;29.50;68.80
4693;DHT22;11710;48.024;16.296;2022-08-30T13:40:23;29.40;69.20
4693;DHT22;11710;48.024;16.296;2022-08-30T13:42:49;29.30;69.60
4693;DHT22;11710;48.024;16.296;2022-08-30T13:45:18;29.30;70.10
4693;DHT22;11710;48.024;16.296;2022-08-30T13:47:47;29.20;69.60
4693;DHT22;11710;48.024;16.296;2022-08-30T13:50:15;29.20;70.00
4693;DHT22;11710;48.024;16.296;2022-08-30T13:52:43;29.20;69.90
4693;DHT22;11710;48.024;16.296;2022-08-30T13:55:10;29.20;70.00
4693;DHT22;11710;48.024;16.296;2022-08-30T13:57:37;29.20;69.40
4693;DHT22;11710;48.024;16.296;2022-08-30T14:00:07;29.10;69.10
4693;DHT22;11710;48.024;16.296;2022-08-30T14:02:35;29.00;69.70
4693;DHT22;11710;48.024;16.296;2022-08-30T14:05:04;29.00;69.60
4693;DHT22;11710;48.024;16.296;2022-08-30T14:07:32;29.10;69.20
4693;DHT22;11710;48.024;16.296;2022-08-30T14:09:59;29.10;69.40
4693;DHT22;11710;48.024;16.296;2022-08-30T14:12:26;29.10;69.30
4693;DHT22;11710;48.024;16.296;2022-08-30T14:14:53;29.00;69.00
4693;DHT22;11710;48.024;16.296;2022-08-30T14:17:21;29.00;68.60
4693;DHT22;11710;48.024;16.296;2022-08-30T14:19:53;28.90;68.90
4693;DHT22;11710;48.024;16.296;2022-08-30T14:22:22;28.90;68.30
4693;DHT22;11710;48.024;16.296;2022-08-30T14:24:48;28.70;68.40
4693;DHT22;11710;48.024;16.296;2022-08-30T14:27:15;28.80;68.30
4693;DHT22;11710;48.024;16.296;2022-08-30T14:29:42;28.80;68.20
4693;DHT22;11710;48.024;16.296;2022-08-30T14:32:09;28.80;68.80
4693;DHT22;11710;48.024;16.296;2022-08-30T14:34:36;28.90;69.60
4693;DHT22;11710;48.024;16.296;2022-08-30T14:37:03;28.90;69.60
4693;DHT22;11710;48.024;16.296;2022-08-30T14:39:32;28.90;68.90
4693;DHT22;11710;48.024;16.296;2022-08-30T14:41:59;28.90;68.90
4693;DHT22;11710;48.024;16.296;2022-08-30T14:44:26;29.00;68.80
4693;DHT22;11710;48.024;16.296;2022-08-30T14:46:54;29.00;68.90
4693;DHT22;11710;48.024;16.296;2022-08-30T14:49:22;28.90;68.30
4693;DHT22;11710;48.024;16.296;2022-08-30T14:51:49;28.80;68.60
4693;DHT22;11710;48.024;16.296;2022-08-30T14:54:18;28.80;68.10
4693;DHT22;11710;48.024;16.296;2022-08-30T14:56:46;28.70;68.50
4693;DHT22;11710;48.024;16.296;2022-08-30T14:59:13;28.70;68.70
4693;DHT22;11710;48.024;16.296;2022-08-30T15:01:41;28.70;68.70
4693;DHT22;11710;48.024;16.296;2022-08-30T15:04:09;28.80;68.50
4693;DHT22;11710;48.024;16.296;2022-08-30T15:06:38;28.80;68.60
4693;DHT22;11710;48.024;16.296;2022-08-30T15:09:07;28.80;68.80
4693;DHT22;11710;48.024;16.296;2022-08-30T15:11:34;28.80;68.60
4693;DHT22;11710;48.024;16.296;2022-08-30T15:14:04;28.80;69.30
4693;DHT22;11710;48.024;16.296;2022-08-30T15:16:33;28.70;68.60
4693;DHT22;11710;48.024;16.296;2022-08-30T15:19:01;28.60;68.80
4693;DHT22;11710;48.024;16.296;2022-08-30T15:21:30;28.70;68.70
4693;DHT22;11710;48.024;16.296;2022-08-30T15:23:57;28.80;69.00
4693;DHT22;11710;48.024;16.296;2022-08-30T15:26:25;28.80;68.90
4693;DHT22;11710;48.024;16.296;2022-08-30T15:28:52;28.80;68.90
4693;DHT22;11710;48.024;16.296;2022-08-30T15:31:23;28.80;68.40
4693;DHT22;11710;48.024;16.296;2022-08-30T15:33:50;28.80;68.40
4693;DHT22;11710;48.024;16.296;2022-08-30T15:36:16;28.60;68.60
4693;DHT22;11710;48.024;16.296;2022-08-30T15:38:43;28.50;69.80
4693;DHT22;11710;48.024;16.296;2022-08-30T15:41:11;28.50;70.00
4693;DHT22;11710;48.024;16.296;2022-08-30T15:43:39;28.50;69.60
4693;DHT22;11710;48.024;16.296;2022-08-30T15:46:15;28.40;69.50
4693;DHT22;11710;48.024;16.296;2022-08-30T15:48:45;28.30;69.70
4693;DHT22;11710;48.024;16.296;2022-08-30T15:51:12;28.40;69.90
4693;DHT22;11710;48.024;16.296;2022-08-30T15:53:39;28.30;69.70
4693;DHT22;11710;48.024;16.296;2022-08-30T15:56:06;28.20;69.10